Glory Guandong — VRQO4 — position and weather

sailwx.info

Track history (hours):
 
Tides and Currents Weather Stations Pressure Air Temp Water Temp Dewpoint Dewpoint Depression Visibility Wind Speed Wind Dir Waves Ship Positions

Glory Guandong

Last reported at 2018-Jun-21 00:45 UTC. Time now 2018-Jun-22 03:13 UTC.
Position N 34°58' E 139°32'.

Length 143 m; draft 7.4 m.

Type: Ship (hazmat cat B). MMSI: 477333400.

Date/timePositionNaut miles runAvg speedWind from/ knotsBaromVisibWave heightAir tempDewpointWater temp
2018-Jun-21 00:45N 34°58' E 139°32'416.1
2018-Jun-21 00:29N 35°01' E 139°36'816.1
2018-Jun-21 00:00N 35°06' E 139°43'815.0
2018-Jun-20 23:30N 35°13' E 139°46'612.7
2018-Jun-20 23:00N 35°19' E 139°43'713.3
2018-Jun-20 22:30N 35°26' E 139°43'2 3.3
2018-Jun-20 21:59N 35°26' E 139°41'0 0.0
2018-Jun-20 21:29N 35°26' E 139°41'0 0.0
2018-Jun-20 20:59N 35°26' E 139°41'0 0.0
2018-Jun-20 20:29N 35°26' E 139°41'0 0.0
2018-Jun-20 19:59N 35°26' E 139°41'0 0.0
2018-Jun-20 19:29N 35°26' E 139°41'0 0.0
2018-Jun-20 18:59N 35°26' E 139°41'0 0.0
2018-Jun-20 18:29N 35°26' E 139°41'0 0.0
2018-Jun-20 17:59N 35°26' E 139°41'0 0.0
2018-Jun-20 17:29N 35°26' E 139°41'0 0.0
2018-Jun-20 16:59N 35°26' E 139°41'0 0.0
2018-Jun-20 16:29N 35°26' E 139°41'0 0.0
2018-Jun-20 15:59N 35°26' E 139°41'0 0.0
2018-Jun-20 15:29N 35°26' E 139°41'0 0.0
2018-Jun-20 14:59N 35°26' E 139°41'0 0.0
2018-Jun-20 14:29N 35°26' E 139°41'0 0.0
2018-Jun-20 13:59N 35°26' E 139°41'0 0.0
2018-Jun-20 13:29N 35°26' E 139°41'0 0.0
2018-Jun-20 12:59N 35°26' E 139°41'0 0.0
2018-Jun-20 12:29N 35°26' E 139°41'0 0.0
2018-Jun-20 11:59N 35°26' E 139°41'0 0.0
2018-Jun-20 11:29N 35°26' E 139°41'0 0.0
2018-Jun-20 10:59N 35°26' E 139°41'0 0.0
2018-Jun-20 10:29N 35°26' E 139°41'0 0.0
2018-Jun-20 10:00N 35°26' E 139°41'1 2.8
2018-Jun-20 09:30N 35°26' E 139°42'3 6.4
2018-Jun-20 09:00N 35°27' E 139°46'5 9.7
2018-Jun-20 08:30N 35°30' E 139°51'611.4
2018-Jun-20 08:00N 35°35' E 139°48'2 2.6
2018-Jun-20 07:23N 35°36' E 139°47'0 0.0
2018-Jun-20 06:59N 35°36' E 139°47'0 0.0
2018-Jun-20 06:29N 35°36' E 139°47'0 0.0
2018-Jun-20 05:59N 35°36' E 139°47'0 0.0
2018-Jun-20 05:29N 35°36' E 139°47'0 0.0
2018-Jun-20 04:59N 35°36' E 139°47'0 0.0
2018-Jun-20 04:23N 35°36' E 139°47'0 0.0
2018-Jun-20 03:59N 35°36' E 139°47'0 0.0
2018-Jun-20 03:29N 35°36' E 139°47'0 0.0
2018-Jun-20 02:59N 35°36' E 139°47'0 0.0
2018-Jun-20 01:29N 35°36' E 139°47'0 0.0
2018-Jun-20 00:59N 35°36' E 139°47'0 0.0
2018-Jun-20 00:29N 35°36' E 139°47'0 0.0
2018-Jun-19 23:59N 35°36' E 139°47'0 0.0
2018-Jun-19 23:29N 35°36' E 139°47'0 0.0
2018-Jun-19 22:50N 35°36' E 139°47'0 0.0
2018-Jun-19 22:29N 35°36' E 139°47'1 1.7
2018-Jun-19 21:55N 35°35' E 139°47'3 7.7
2018-Jun-19 21:30N 35°33' E 139°50'4 8.2
2018-Jun-19 21:00N 35°29' E 139°52'714.8
2018-Jun-19 20:30N 35°24' E 139°46'612.0
2018-Jun-19 20:01N 35°18' E 139°45'611.1
2018-Jun-19 19:30N 35°13' E 139°47'612.9
2018-Jun-19 19:00N 35°07' E 139°44'  
2018-Jun-16 22:44N 31°05' E 122°29'410.8
2018-Jun-16 22:23N 31°06' E 122°25'615.0
2018-Jun-16 22:00N 31°06' E 122°19'1014.7
2018-Jun-16 21:20N 31°12' E 122°09'514.7
2018-Jun-16 21:00N 31°14' E 122°04'714.7
2018-Jun-16 20:30N 31°15' E 121°55'714.7
2018-Jun-16 20:00N 31°18' E 121°47'4 0.1
2018-Jun-15 03:11N 31°14' E 121°48'714.1
2018-Jun-15 02:43N 31°09' E 121°53'314.0
2018-Jun-15 02:30N 31°07' E 121°56'813.4
2018-Jun-15 01:55N 31°04' E 122°05'613.9
2018-Jun-15 01:30N 31°03' E 122°11'612.0
2018-Jun-15 01:01N 31°02' E 122°18'714.7
2018-Jun-15 00:30N 31°01' E 122°27'814.5
2018-Jun-14 23:58N 30°59' E 122°36'510.5
2018-Jun-14 23:27N 31°01' E 122°42'0 0.2
2018-Jun-14 22:24N 31°01' E 122°41'0 0.0
2018-Jun-14 22:00N 31°01' E 122°41'0 0.0
2018-Jun-14 21:03N 31°01' E 122°41'0 0.1
2018-Jun-14 20:57N 31°01' E 122°41'0 0.1
2018-Jun-14 19:57N 31°01' E 122°41'0 0.0
2018-Jun-14 19:27N 31°01' E 122°41'0 0.0
2018-Jun-14 18:30N 31°01' E 122°41'0 0.1
2018-Jun-14 17:42N 31°01' E 122°41'0 0.1
2018-Jun-14 17:30N 31°01' E 122°41'0 0.0
2018-Jun-14 17:00N 31°01' E 122°41'0 0.1
2018-Jun-14 16:24N 31°01' E 122°41'0 0.1
2018-Jun-14 15:24N 31°01' E 122°41'0 0.0
2018-Jun-14 15:00N 31°01' E 122°41'0 0.0
2018-Jun-14 14:18N 31°01' E 122°41'0 0.0
2018-Jun-14 14:00N 31°01' E 122°41'0 0.1
2018-Jun-14 13:30N 31°01' E 122°41'0 0.0
2018-Jun-14 13:00N 31°01' E 122°41'0 0.1
2018-Jun-14 12:27N 31°01' E 122°41'0 0.0
2018-Jun-14 12:00N 31°01' E 122°41'  
Track history (hours):
 
Tides and Currents Weather Stations Pressure Air Temp Water Temp Dewpoint Dewpoint Depression Visibility Wind Speed Wind Dir Waves Ship Positions

Glory Guandong

Last reported at 2018-Jun-21 00:45 UTC. Time now 2018-Jun-22 03:13 UTC.
Position N 34°58' E 139°32'.

Length 143 m; draft 7.4 m.

Type: Ship (hazmat cat B). MMSI: 477333400.

Date/timePositionNaut miles runAvg speedWind from/ knotsBaromVisibWave heightAir tempDewpointWater temp
2018-Jun-21 00:45N 34°58' E 139°32'416.1
2018-Jun-21 00:29N 35°01' E 139°36'816.1
2018-Jun-21 00:00N 35°06' E 139°43'815.0
2018-Jun-20 23:30N 35°13' E 139°46'612.7
2018-Jun-20 23:00N 35°19' E 139°43'713.3
2018-Jun-20 22:30N 35°26' E 139°43'2 3.3
2018-Jun-20 21:59N 35°26' E 139°41'0 0.0
2018-Jun-20 21:29N 35°26' E 139°41'0 0.0
2018-Jun-20 20:59N 35°26' E 139°41'0 0.0
2018-Jun-20 20:29N 35°26' E 139°41'0 0.0
2018-Jun-20 19:59N 35°26' E 139°41'0 0.0
2018-Jun-20 19:29N 35°26' E 139°41'0 0.0
2018-Jun-20 18:59N 35°26' E 139°41'0 0.0
2018-Jun-20 18:29N 35°26' E 139°41'0 0.0
2018-Jun-20 17:59N 35°26' E 139°41'0 0.0
2018-Jun-20 17:29N 35°26' E 139°41'0 0.0
2018-Jun-20 16:59N 35°26' E 139°41'0 0.0
2018-Jun-20 16:29N 35°26' E 139°41'0 0.0
2018-Jun-20 15:59N 35°26' E 139°41'0 0.0
2018-Jun-20 15:29N 35°26' E 139°41'0 0.0
2018-Jun-20 14:59N 35°26' E 139°41'0 0.0
2018-Jun-20 14:29N 35°26' E 139°41'0 0.0
2018-Jun-20 13:59N 35°26' E 139°41'0 0.0
2018-Jun-20 13:29N 35°26' E 139°41'0 0.0
2018-Jun-20 12:59N 35°26' E 139°41'0 0.0
2018-Jun-20 12:29N 35°26' E 139°41'0 0.0
2018-Jun-20 11:59N 35°26' E 139°41'0 0.0
2018-Jun-20 11:29N 35°26' E 139°41'0 0.0
2018-Jun-20 10:59N 35°26' E 139°41'0 0.0
2018-Jun-20 10:29N 35°26' E 139°41'0 0.0
2018-Jun-20 10:00N 35°26' E 139°41'1 2.8
2018-Jun-20 09:30N 35°26' E 139°42'3 6.4
2018-Jun-20 09:00N 35°27' E 139°46'5 9.7
2018-Jun-20 08:30N 35°30' E 139°51'611.4
2018-Jun-20 08:00N 35°35' E 139°48'2 2.6
2018-Jun-20 07:23N 35°36' E 139°47'0 0.0
2018-Jun-20 06:59N 35°36' E 139°47'0 0.0
2018-Jun-20 06:29N 35°36' E 139°47'0 0.0
2018-Jun-20 05:59N 35°36' E 139°47'0 0.0
2018-Jun-20 05:29N 35°36' E 139°47'0 0.0
2018-Jun-20 04:59N 35°36' E 139°47'0 0.0
2018-Jun-20 04:23N 35°36' E 139°47'0 0.0
2018-Jun-20 03:59N 35°36' E 139°47'0 0.0
2018-Jun-20 03:29N 35°36' E 139°47'0 0.0
2018-Jun-20 02:59N 35°36' E 139°47'0 0.0
2018-Jun-20 01:29N 35°36' E 139°47'0 0.0
2018-Jun-20 00:59N 35°36' E 139°47'0 0.0
2018-Jun-20 00:29N 35°36' E 139°47'0 0.0
2018-Jun-19 23:59N 35°36' E 139°47'0 0.0
2018-Jun-19 23:29N 35°36' E 139°47'0 0.0
2018-Jun-19 22:50N 35°36' E 139°47'0 0.0
2018-Jun-19 22:29N 35°36' E 139°47'1 1.7
2018-Jun-19 21:55N 35°35' E 139°47'3 7.7
2018-Jun-19 21:30N 35°33' E 139°50'4 8.2
2018-Jun-19 21:00N 35°29' E 139°52'714.8
2018-Jun-19 20:30N 35°24' E 139°46'612.0
2018-Jun-19 20:01N 35°18' E 139°45'611.1
2018-Jun-19 19:30N 35°13' E 139°47'612.9
2018-Jun-19 19:00N 35°07' E 139°44'  
2018-Jun-16 22:44N 31°05' E 122°29'410.8
2018-Jun-16 22:23N 31°06' E 122°25'615.0
2018-Jun-16 22:00N 31°06' E 122°19'1014.7
2018-Jun-16 21:20N 31°12' E 122°09'514.7
2018-Jun-16 21:00N 31°14' E 122°04'714.7
2018-Jun-16 20:30N 31°15' E 121°55'714.7
2018-Jun-16 20:00N 31°18' E 121°47'4 0.1
2018-Jun-15 03:11N 31°14' E 121°48'714.1
2018-Jun-15 02:43N 31°09' E 121°53'314.0
2018-Jun-15 02:30N 31°07' E 121°56'813.4
2018-Jun-15 01:55N 31°04' E 122°05'613.9
2018-Jun-15 01:30N 31°03' E 122°11'612.0
2018-Jun-15 01:01N 31°02' E 122°18'714.7
2018-Jun-15 00:30N 31°01' E 122°27'814.5
2018-Jun-14 23:58N 30°59' E 122°36'510.5
2018-Jun-14 23:27N 31°01' E 122°42'0 0.2
2018-Jun-14 22:24N 31°01' E 122°41'0 0.0
2018-Jun-14 22:00N 31°01' E 122°41'0 0.0
2018-Jun-14 21:03N 31°01' E 122°41'0 0.1
2018-Jun-14 20:57N 31°01' E 122°41'0 0.1
2018-Jun-14 19:57N 31°01' E 122°41'0 0.0
2018-Jun-14 19:27N 31°01' E 122°41'0 0.0
2018-Jun-14 18:30N 31°01' E 122°41'0 0.1
2018-Jun-14 17:42N 31°01' E 122°41'0 0.1
2018-Jun-14 17:30N 31°01' E 122°41'0 0.0
2018-Jun-14 17:00N 31°01' E 122°41'0 0.1
2018-Jun-14 16:24N 31°01' E 122°41'0 0.1
2018-Jun-14 15:24N 31°01' E 122°41'0 0.0
2018-Jun-14 15:00N 31°01' E 122°41'0 0.0
2018-Jun-14 14:18N 31°01' E 122°41'0 0.0
2018-Jun-14 14:00N 31°01' E 122°41'0 0.1
2018-Jun-14 13:30N 31°01' E 122°41'0 0.0
2018-Jun-14 13:00N 31°01' E 122°41'0 0.1
2018-Jun-14 12:27N 31°01' E 122°41'0 0.0
2018-Jun-14 12:00N 31°01' E 122°41'  

Dump ship's entire track history